OINR  Ramsar Airport

Add Bookmark

Iran

Status IATA
Operational RZR
Latitude Longitude
36° 54' 35" N 50° 40' 46" E
36.909901 50.679600
Local (DST + 5) UTC (GMT + 4)
Oct 21, 2014 07:13 Oct 21, 2014 03:43
Sunrise-Sunset Local UTC
Begin Civil Twilight 05:52 02:22
Sunrise 06:19 02:49
Sunset 05:24 13:54
End Civil Twilight 05:50 14:20

Current Weather

METAR Observed MVFR
OINR 210300Z 00000KT 9999 BKN027 OVC090 13/13 Q1016 Tue, Oct 21, 2014 @ 03:00 UTC
(43 Minutes ago)
Marginal Visual Flight Rules
Wind Visibility Clouds Conditions
Calm 10 km or more
  • Broken at 2,700' AGL
  • Overcast at 9,000' AGL
  • No significant weather
Temperatures Readings Precipitation
Current Temp 13°C (55°F)
Dewpoint 13°C (55°F)
Humidity 100%
Altimeter 30"Hg
Sea Level Pressure 1016mb
None Recorded

Additional weather within a 92.6km radius of OINR

Map ICAO Location
OINN 75km E (111°)

24 Hour Weather History

Loading
-

24 Hour Weather Graphs

Loading
-

CheckWX.com is intended as a tool to help pilots better visualize weather data. It is not intended as a substitute for an official weather briefing obtained from a Flight Service Station. CheckWX.com does not meet the FAA requirements for an official pre-flight weather briefing. Therefore, it's important that pilots still call and obtain an official FSS pre-flight weather briefing.